This is the latest recevied weather packets stored in our database for station/object OK1VCF-5. If no packets are shown the sender has not sent any weather packets the latest 10 day(s).
| Time | Temp. | Humidity | Pressure | Rain* | Wind** | Luminosity | Snow |
|---|---|---|---|---|---|---|---|
| 1777495974 | 3.33° C | 46% | 1034.4 hPa | - | - | - | - |
| 1777494169 | 4.44° C | 42% | 1034 hPa | - | - | - | - |
| 1777493268 | 4.44° C | 40% | 1033.6 hPa | - | - | - | - |
| 1777492367 | 5° C | 40% | 1033.6 hPa | - | - | - | - |
| 1777491467 | 5° C | 40% | 1033.2 hPa | - | - | - | - |
| 1777490566 | 5.56° C | 38% | 1033.2 hPa | - | - | - | - |
| 1777489663 | 5.56° C | 38% | 1033 hPa | - | - | - | - |
| 1777488764 | 6.67° C | 37% | 1032.8 hPa | - | - | - | - |
| 1777486061 | 7.78° C | 34% | 1031.7 hPa | - | - | - | - |
| 1777485159 | 8.33° C | 33% | 1031.4 hPa | - | - | - | - |
| 1777484259 | 8.89° C | 32% | 1031 hPa | - | - | - | - |
| 1777482459 | 10° C | 30% | 1030.3 hPa | - | - | - | - |
| 1777481559 | 10.56° C | 29% | 1030.2 hPa | - | - | - | - |
| 1777480657 | 11.67° C | 29% | 1030 hPa | - | - | - | - |
| 1777479755 | 12.22° C | 29% | 1029.7 hPa | - | - | - | - |
| 1777478855 | 12.78° C | 30% | 1029.6 hPa | - | - | - | - |
| 1777477954 | 13.33° C | 30% | 1029.4 hPa | - | - | - | - |
| 1777477054 | 13.33° C | 31% | 1029.4 hPa | - | - | - | - |
| 1777476153 | 13.89° C | 32% | 1029.2 hPa | - | - | - | - |
| 1777475252 | 14.44° C | 32% | 1029 hPa | - | - | - | - |
| 1777474350 | 14.44° C | 33% | 1028.8 hPa | - | - | - | - |
| 1777473451 | 14.44° C | 34% | 1028.8 hPa | - | - | - | - |
| 1777472550 | 14.44° C | 33% | 1028.4 hPa | - | - | - | - |
| 1777471649 | 16.67° C | 29% | 1028.3 hPa | - | - | - | - |
| 1777470747 | 16.67° C | 26% | 1028.2 hPa | - | - | - | - |
* Rain since midnight (hover to see other rain measurements)
** Current wind speed in m/s (hover to see current wind gust speed)